Time;durP1;ratioP1;P1;durP2;ratioP2;P2;SDS_P1;SDS_P2;PMS_P1;PMS_P2;Temp;Humidity;BMP_temperature;BMP_pressure;BME280_temperature;BME280_humidity;BME280_pressure;Samples;Min_cycle;Max_cycle;Signal;HPM_P1;HPM_P2
2021/11/07 00:00:01;;;;;;;27.33;16.02;;;;;;;10.32;100.00;98394.69;5015761;28;20025;-83
2021/11/07 00:05:03;;;;;;;35.35;18.02;;;;;;;10.37;100.00;98398.00;5016018;28;20392;-83
2021/11/07 00:10:22;;;;;;;33.40;17.33;;;;;;;10.32;100.00;98408.06;5014676;28;20400;-83
2021/11/07 00:12:54;;;;;;;30.02;16.45;;;;;;;10.27;100.00;98402.06;5017247;28;20397;-83
2021/11/07 00:15:20;;;;;;;37.53;17.80;;;;;;;10.26;100.00;98403.88;5015479;28;20029;-83
2021/11/07 00:17:50;;;;;;;31.75;16.00;;;;;;;10.22;100.00;98402.28;5028901;28;20047;-83
2021/11/07 00:20:24;;;;;;;32.13;16.63;;;;;;;10.16;100.00;98383.84;5014631;28;20029;-83
2021/11/07 00:28:14;;;;;;;27.30;15.98;;;;;;;10.28;100.00;98393.09;5012249;28;20040;-82
2021/11/07 00:38:18;;;;;;;25.30;14.00;;;;;;;10.24;100.00;98383.50;5013136;28;20065;-82
2021/11/07 00:43:37;;;;;;;32.25;16.77;;;;;;;10.16;100.00;98370.47;4999658;28;20045;-82
2021/11/07 00:46:25;;;;;;;30.25;16.83;;;;;;;10.08;100.00;98353.91;4996485;28;20557;-82
2021/11/07 00:48:57;;;;;;;29.67;17.92;;;;;;;10.08;100.00;98364.59;4987039;28;20057;-82
2021/11/07 00:59:34;;;;;;;31.27;16.38;;;;;;;10.18;100.00;98355.22;4992436;28;20038;-83
2021/11/07 01:01:59;;;;;;;38.75;17.40;;;;;;;10.07;100.00;98341.47;4984508;28;20073;-82
2021/11/07 01:04:27;;;;;;;37.33;17.40;;;;;;;10.17;100.00;98348.16;4974783;28;20041;-83
2021/11/07 01:06:53;;;;;;;33.95;18.42;;;;;;;10.20;100.00;98347.13;4991893;28;20030;-81
2021/11/07 01:09:19;;;;;;;32.70;19.08;;;;;;;10.14;100.00;98321.56;4990284;28;20542;-83
2021/11/07 01:11:44;;;;;;;37.65;20.60;;;;;;;10.19;100.00;98319.53;4975636;28;20064;-85
2021/11/07 01:14:11;;;;;;;36.28;19.73;;;;;;;10.23;100.00;98301.53;4975640;28;20030;-83
2021/11/07 01:16:38;;;;;;;35.80;18.52;;;;;;;10.29;100.00;98298.56;4975592;28;20080;-85
2021/11/07 01:19:04;;;;;;;33.97;18.35;;;;;;;10.25;100.00;98307.66;4975518;28;20030;-83
2021/11/07 01:21:34;;;;;;;34.95;19.35;;;;;;;10.25;100.00;98313.88;4975178;28;20030;-83
2021/11/07 01:24:02;;;;;;;35.00;19.10;;;;;;;10.17;100.00;98316.06;4991610;28;20061;-83
2021/11/07 01:26:35;;;;;;;40.90;20.10;;;;;;;10.09;100.00;98312.84;4978048;28;20034;-83
2021/11/07 01:29:09;;;;;;;35.63;19.77;;;;;;;10.01;100.00;98295.44;4984487;28;20481;-83
2021/11/07 01:31:35;;;;;;;33.38;18.63;;;;;;;10.02;100.00;98299.88;4983115;28;20037;-84
2021/11/07 01:34:02;;;;;;;37.78;19.27;;;;;;;10.03;100.00;98307.78;4991562;28;20026;-83
2021/11/07 01:36:42;;;;;;;36.60;19.75;;;;;;;9.98;100.00;98287.59;4991546;28;20026;-85
2021/11/07 01:44:05;;;;;;;46.42;21.92;;;;;;;10.12;100.00;98295.81;4985153;28;20076;-83
2021/11/07 01:46:32;;;;;;;50.53;26.30;;;;;;;10.07;100.00;98292.50;4983063;28;20031;-84
2021/11/07 01:49:06;;;;;;;50.42;27.50;;;;;;;10.03;100.00;98291.75;4995446;28;20049;-83
2021/11/07 01:51:33;;;;;;;44.63;25.05;;;;;;;9.91;100.00;98284.34;4988337;28;20030;-82
2021/11/07 01:56:49;;;;;;;52.00;23.50;;;;;;;9.87;100.00;98280.09;5002603;28;20088;-83
2021/11/07 01:59:14;;;;;;;46.50;24.30;;;;;;;9.91;100.00;98265.63;4990855;28;20125;-83
2021/11/07 02:01:41;;;;;;;48.83;23.50;;;;;;;10.04;100.00;98272.13;5008390;28;20121;-82
2021/11/07 02:04:07;;;;;;;40.95;22.77;;;;;;;9.98;100.00;98267.06;5010605;28;20037;-83
2021/11/07 02:06:32;;;;;;;44.30;22.83;;;;;;;10.05;100.00;98275.66;4994247;28;20071;-83
2021/11/07 02:08:58;;;;;;;42.13;22.20;;;;;;;10.02;100.00;98265.13;5018365;28;20457;-84
2021/11/07 02:11:23;;;;;;;39.50;21.63;;;;;;;9.99;100.00;98260.81;4994152;28;20104;-83
2021/11/07 02:13:50;;;;;;;37.67;20.17;;;;;;;10.09;100.00;98270.09;4985949;28;20448;-83
2021/11/07 02:16:17;;;;;;;37.33;19.05;;;;;;;10.18;100.00;98280.34;4994060;28;20084;-84
2021/11/07 02:18:43;;;;;;;32.92;17.77;;;;;;;10.16;100.00;98258.19;5002097;28;20489;-83
2021/11/07 02:21:08;;;;;;;31.73;17.38;;;;;;;10.17;100.00;98265.28;5009904;28;20069;-83
2021/11/07 02:23:35;;;;;;;32.08;18.52;;;;;;;10.15;100.00;98275.16;4993936;28;20121;-82
2021/11/07 02:26:05;;;;;;;36.53;17.60;;;;;;;10.01;100.00;98261.59;5009940;28;20061;-82
2021/11/07 02:28:34;;;;;;;35.78;19.75;;;;;;;9.96;100.00;98268.09;4994384;28;20033;-82
2021/11/07 02:31:01;;;;;;;38.60;20.08;;;;;;;9.82;100.00;98263.38;5009919;28;20030;-83
2021/11/07 02:33:27;;;;;;;37.35;18.75;;;;;;;9.80;100.00;98262.59;4986885;28;20094;-84
2021/11/07 02:35:53;;;;;;;35.63;18.45;;;;;;;9.79;100.00;98258.19;4993538;28;20524;-83
2021/11/07 02:38:19;;;;;;;31.17;17.73;;;;;;;9.78;100.00;98253.81;5009423;28;20507;-84
2021/11/07 02:40:45;;;;;;;32.50;18.77;;;;;;;9.70;100.00;98251.50;5001954;28;20026;-83
2021/11/07 02:43:11;;;;;;;33.65;18.90;;;;;;;9.60;100.00;98244.84;5004240;28;20034;-82
2021/11/07 02:45:36;;;;;;;33.40;18.35;;;;;;;9.57;100.00;98234.28;5002817;28;20483;-83
2021/11/07 02:48:02;;;;;;;35.42;17.13;;;;;;;9.58;100.00;98229.81;4996670;28;20029;-83
2021/11/07 02:50:28;;;;;;;35.20;18.02;;;;;;;9.57;100.00;98244.09;5030712;28;20393;-82
2021/11/07 02:52:53;;;;;;;31.13;16.60;;;;;;;9.56;100.00;98239.72;5016980;28;20040;-83
2021/11/07 02:55:23;;;;;;;26.90;17.23;;;;;;;9.52;100.00;98240.78;5000643;28;20029;-82
2021/11/07 02:57:53;;;;;;;31.45;16.98;;;;;;;9.45;100.00;98228.66;5016867;28;20381;-82
2021/11/07 03:00:22;;;;;;;33.42;19.02;;;;;;;9.12;100.00;98225.75;5026812;28;20048;-82
2021/11/07 03:02:47;;;;;;;39.30;20.83;;;;;;;8.99;100.00;98228.09;5016872;28;20356;-84
2021/11/07 03:05:14;;;;;;;38.28;20.42;;;;;;;8.90;100.00;98224.97;5015934;28;20037;-82
2021/11/07 03:07:41;;;;;;;37.15;19.20;;;;;;;9.07;100.00;98230.44;5016920;28;20539;-84
2021/11/07 03:10:08;;;;;;;37.58;19.98;;;;;;;8.95;100.00;98213.16;5000595;28;20026;-84
2021/11/07 03:12:36;;;;;;;38.40;20.10;;;;;;;8.92;100.00;98213.28;4997410;28;20505;-83
2021/11/07 03:15:02;;;;;;;33.25;19.20;;;;;;;9.14;100.00;98224.72;4997801;28;20026;-82
2021/11/07 03:17:28;;;;;;;32.28;19.38;;;;;;;9.06;100.00;98218.88;4993532;28;20120;-82
2021/11/07 03:19:54;;;;;;;40.25;20.23;;;;;;;9.19;100.00;98220.06;5018131;28;20065;-83
2021/11/07 03:22:23;;;;;;;36.95;19.58;;;;;;;9.34;100.00;98222.97;5016186;28;20033;-82
2021/11/07 03:24:54;;;;;;;33.38;18.83;;;;;;;9.35;100.00;98219.38;5000415;28;20400;-84
2021/11/07 03:27:34;;;;;;;37.15;18.98;;;;;;;9.38;100.00;98230.78;5000034;28;20484;-83
2021/11/07 03:30:05;;;;;;;36.50;18.88;;;;;;;9.37;100.00;98220.16;4996805;28;20033;-83
2021/11/07 03:32:34;;;;;;;33.80;19.38;;;;;;;9.43;100.00;98222.53;4986659;28;20025;-83
2021/11/07 03:35:03;;;;;;;39.75;19.65;;;;;;;9.55;100.00;98219.28;5013308;28;20018;-83
2021/11/07 03:37:36;;;;;;;33.38;18.95;;;;;;;9.74;100.00;98222.81;5015999;28;20033;-83
2021/11/07 03:40:07;;;;;;;33.03;19.35;;;;;;;9.75;100.00;98206.72;5012630;28;20034;-83
2021/11/07 03:42:33;;;;;;;40.45;20.23;;;;;;;9.71;100.00;98215.84;5016112;28;20507;-82
2021/11/07 03:44:58;;;;;;;37.50;19.83;;;;;;;9.68;100.00;98209.75;4989327;28;20033;-82
2021/11/07 03:47:24;;;;;;;47.13;21.33;;;;;;;9.61;100.00;98197.63;4998950;28;20506;-83
2021/11/07 03:49:51;;;;;;;52.03;22.42;;;;;;;9.78;100.00;98219.09;5009738;28;20104;-83
2021/11/07 03:52:16;;;;;;;48.90;23.77;;;;;;;9.77;100.00;98226.22;5010158;28;20045;-83
2021/11/07 03:54:42;;;;;;;53.55;24.73;;;;;;;9.69;100.00;98220.34;5011887;28;20100;-84
2021/11/07 03:57:11;;;;;;;58.67;26.33;;;;;;;9.74;100.00;98223.69;5021067;28;20092;-83
2021/11/07 03:59:41;;;;;;;65.75;32.72;;;;;;;9.79;100.00;98231.47;4996258;28;20112;-83
2021/11/07 04:02:07;;;;;;;80.95;37.38;;;;;;;9.76;100.00;98231.63;5012529;28;20489;-82
2021/11/07 04:04:32;;;;;;;75.22;35.90;;;;;;;9.77;100.00;98230.69;4996248;28;20026;-82
2021/11/07 04:06:58;;;;;;;96.10;35.05;;;;;;;9.89;100.00;98219.41;5004216;28;20471;-82
2021/11/07 04:09:24;;;;;;;120.47;31.88;;;;;;;10.05;100.00;98238.25;4999828;28;20046;-81
2021/11/07 04:11:50;;;;;;;126.20;31.02;;;;;;;10.01;100.00;98223.28;4979636;28;20029;-84
2021/11/07 04:14:16;;;;;;;59.00;26.38;;;;;;;10.07;100.00;98220.31;5025407;28;20116;-83
2021/11/07 04:16:42;;;;;;;108.70;31.27;;;;;;;10.08;100.00;98233.63;5011737;28;20120;-83
2021/11/07 04:19:08;;;;;;;77.35;34.25;;;;;;;10.14;100.00;98225.34;5028489;28;20029;-83
2021/11/07 04:21:35;;;;;;;63.58;28.13;;;;;;;10.15;100.00;98237.75;5003666;28;20026;-82
2021/11/07 04:24:00;;;;;;;59.88;24.55;;;;;;;9.91;100.00;98227.34;5011805;28;20444;-83
2021/11/07 04:26:26;;;;;;;49.90;22.50;;;;;;;9.82;100.00;98217.97;4988233;28;20030;-82
2021/11/07 04:28:52;;;;;;;46.45;21.38;;;;;;;9.86;100.00;98240.94;4994911;28;21285;-82
2021/11/07 04:31:18;;;;;;;46.47;21.63;;;;;;;9.81;100.00;98232.28;5011461;28;20081;-83
2021/11/07 04:33:44;;;;;;;45.50;21.77;;;;;;;9.75;100.00;98227.25;5011651;28;20477;-83
2021/11/07 04:36:10;;;;;;;49.53;23.30;;;;;;;9.81;100.00;98229.63;4990486;28;20379;-82
2021/11/07 04:38:37;;;;;;;51.50;24.02;;;;;;;9.87;100.00;98237.34;4991868;28;20679;-83
2021/11/07 04:41:04;;;;;;;51.45;23.77;;;;;;;9.76;100.00;98219.13;4999855;28;20370;-84
2021/11/07 04:43:30;;;;;;;60.22;25.25;;;;;;;9.87;100.00;98237.34;4991340;28;20034;-83
2021/11/07 04:45:56;;;;;;;66.85;28.10;;;;;;;9.87;100.00;98228.44;4995047;28;20512;-82
2021/11/07 04:48:22;;;;;;;75.25;27.17;;;;;;;9.96;100.00;98231.56;4991821;28;20046;-82
2021/11/07 04:50:48;;;;;;;56.35;23.48;;;;;;;10.04;100.00;98221.34;4991581;28;20061;-83
2021/11/07 04:53:15;;;;;;;51.40;23.35;;;;;;;10.01;100.00;98218.81;4983843;28;20050;-84
2021/11/07 04:55:43;;;;;;;51.53;24.17;;;;;;;10.02;100.00;98225.91;4986424;28;20123;-83
2021/11/07 04:58:10;;;;;;;66.20;26.77;;;;;;;9.90;100.00;98231.84;4990975;28;20033;-83
2021/11/07 05:00:37;;;;;;;68.43;29.45;;;;;;;9.90;100.00;98226.50;4975687;28;20032;-83
2021/11/07 05:03:04;;;;;;;72.47;27.95;;;;;;;9.82;100.00;98234.00;4968444;28;20022;-84
2021/11/07 05:05:30;;;;;;;68.32;27.60;;;;;;;9.93;100.00;98236.16;4967893;28;20026;-82
2021/11/07 05:07:56;;;;;;;48.38;24.10;;;;;;;9.87;100.00;98228.44;4984745;28;20038;-82
2021/11/07 05:10:23;;;;;;;43.20;21.70;;;;;;;9.88;100.00;98241.72;4983549;28;20031;-84
2021/11/07 05:12:48;;;;;;;45.10;22.10;;;;;;;9.93;100.00;98245.06;4991355;28;20429;-81
2021/11/07 05:15:14;;;;;;;48.55;22.20;;;;;;;9.90;100.00;98223.84;4975219;28;20034;-83
2021/11/07 05:17:40;;;;;;;43.00;21.85;;;;;;;10.04;100.00;98245.41;4975264;28;20489;-83
2021/11/07 05:20:06;;;;;;;49.25;22.50;;;;;;;9.96;100.00;98233.34;4991172;28;20469;-83
2021/11/07 05:22:32;;;;;;;62.10;26.77;;;;;;;10.03;100.00;98238.31;4975073;28;20045;-83
2021/11/07 05:24:57;;;;;;;78.22;23.23;;;;;;;10.14;100.00;98240.50;4984651;28;20038;-83
2021/11/07 05:27:23;;;;;;;99.57;23.35;;;;;;;10.13;100.00;98233.38;4975107;28;20034;-83
2021/11/07 05:29:49;;;;;;;46.97;23.75;;;;;;;10.15;100.00;98243.09;4990971;28;20030;-83
2021/11/07 05:32:14;;;;;;;48.13;22.60;;;;;;;10.28;100.00;98254.91;4982428;28;20022;-83
2021/11/07 05:34:41;;;;;;;45.35;22.27;;;;;;;10.42;100.00;98253.38;4975288;28;20049;-83
2021/11/07 05:37:08;;;;;;;49.13;22.83;;;;;;;10.46;100.00;98252.28;4975026;28;20077;-83
2021/11/07 05:39:34;;;;;;;43.97;21.63;;;;;;;10.54;100.00;98250.06;4991136;28;20046;-83
2021/11/07 05:41:59;;;;;;;45.88;22.42;;;;;;;10.54;100.00;98247.41;4974604;28;20486;-83
2021/11/07 05:44:26;;;;;;;45.47;23.08;;;;;;;10.56;100.00;98243.69;4974400;28;20030;-83
2021/11/07 05:46:51;;;;;;;48.55;23.60;;;;;;;10.45;100.00;98245.19;4990738;28;20436;-83
2021/11/07 05:49:17;;;;;;;50.67;24.17;;;;;;;10.46;100.00;98247.78;4996792;28;20171;-83
2021/11/07 05:51:43;;;;;;;51.40;24.55;;;;;;;10.39;100.00;98246.38;5002643;28;20462;-83
2021/11/07 05:54:08;;;;;;;52.25;25.15;;;;;;;10.23;100.00;98246.25;4992233;28;20519;-82
2021/11/07 05:56:34;;;;;;;56.13;24.95;;;;;;;10.22;100.00;98254.34;4994865;28;20029;-83
2021/11/07 05:59:00;;;;;;;49.38;23.30;;;;;;;10.19;100.00;98255.38;4992162;28;20026;-79
2021/11/07 06:01:26;;;;;;;58.00;25.38;;;;;;;10.13;100.00;98244.97;5003082;28;20021;-79
2021/11/07 06:03:52;;;;;;;54.03;25.77;;;;;;;10.04;100.00;98248.06;5011023;28;20066;-79
2021/11/07 06:06:18;;;;;;;72.50;24.58;;;;;;;10.06;100.00;98248.84;4999724;28;20026;-90
2021/11/07 06:08:44;;;;;;;59.92;25.55;;;;;;;10.14;100.00;98240.50;5011884;28;20030;-89
2021/11/07 06:11:09;;;;;;;50.80;24.55;;;;;;;10.26;100.00;98239.91;5025931;28;20061;-93
2021/11/07 06:13:35;;;;;;;82.47;25.23;;;;;;;10.39;100.00;98245.50;5010864;28;20098;-91
2021/11/07 06:16:02;;;;;;;60.17;23.48;;;;;;;10.63;100.00;98254.97;5022978;28;20092;-78
2021/11/07 06:18:29;;;;;;;49.28;25.67;;;;;;;10.79;100.00;98253.25;5016302;28;20030;-82
2021/11/07 06:20:55;;;;;;;54.17;28.23;;;;;;;11.00;100.00;98244.09;5001140;28;20456;-79
2021/11/07 06:23:21;;;;;;;51.88;27.80;;;;;;;11.09;100.00;98248.09;5017280;28;20033;-83
2021/11/07 06:25:47;;;;;;;51.10;25.38;;;;;;;11.25;100.00;98247.22;5010787;28;20033;-83
2021/11/07 06:28:21;;;;;;;48.38;24.77;;;;;;;11.50;100.00;98251.25;4991071;28;20030;-86
2021/11/07 06:30:48;;;;;;;62.35;32.40;;;;;;;11.72;100.00;98244.63;5001819;28;20049;-83
2021/11/07 06:33:15;;;;;;;54.13;27.48;;;;;;;11.92;100.00;98256.94;4993557;28;20698;-84
2021/11/07 06:35:41;;;;;;;48.00;26.80;;;;;;;12.09;100.00;98248.81;4994215;28;20044;-85
2021/11/07 06:38:07;;;;;;;59.35;28.48;;;;;;;12.19;100.00;98235.72;4991021;28;20487;-83
2021/11/07 06:40:34;;;;;;;49.78;27.30;;;;;;;12.23;100.00;98230.13;4992362;28;20033;-87
2021/11/07 06:43:24;;;;;;;51.80;26.98;;;;;;;12.85;100.00;98241.66;5007580;28;20035;-83
2021/11/07 06:45:50;;;;;;;49.15;25.60;;;;;;;13.55;100.00;98220.28;5009794;28;20408;-86
2021/11/07 06:48:16;;;;;;;42.40;24.35;;;;;;;13.70;99.76;98222.94;5011066;28;20029;-84
2021/11/07 06:50:42;;;;;;;46.92;25.80;;;;;;;14.28;97.21;98234.34;5008774;28;20057;-83
2021/11/07 06:53:08;;;;;;;47.10;25.77;;;;;;;14.07;96.48;98230.38;4989189;28;20022;-85
2021/11/07 06:55:34;;;;;;;50.65;28.17;;;;;;;14.04;96.98;98214.44;4990766;28;20026;-84
2021/11/07 06:58:00;;;;;;;62.90;29.90;;;;;;;14.23;95.57;98224.88;4995907;28;20034;-84
2021/11/07 07:00:27;;;;;;;57.15;30.15;;;;;;;13.63;97.88;98218.94;5007169;28;20488;-85
2021/11/07 07:02:56;;;;;;;54.45;27.13;;;;;;;13.16;100.00;98217.41;4985118;28;20397;-85
2021/11/07 07:05:21;;;;;;;57.47;30.17;;;;;;;12.98;100.00;98202.38;4984118;28;20512;-87
2021/11/07 07:07:56;;;;;;;72.05;39.65;;;;;;;13.41;100.00;98200.63;5015855;28;20030;-84
2021/11/07 07:10:35;;;;;;;60.95;30.50;;;;;;;13.58;100.00;98185.13;4994398;28;20879;-84
2021/11/07 07:13:18;;;;;;;66.43;34.95;;;;;;;13.97;98.46;98213.09;5001241;28;20056;-83
2021/11/07 07:15:49;;;;;;;;;;;;;;;14.21;97.84;98216.03;5004261;28;20091;-83
2021/11/07 07:19:04;;;;;;;52.28;27.98;;;;;;;13.73;98.41;98212.00;4996309;28;20004;-84
2021/11/07 07:21:12;;;;;;;47.80;25.52;;;;;;;13.50;100.00;98205.41;4988080;28;20434;-84
2021/11/07 07:24:07;;;;;;;51.22;26.02;;;;;;;13.49;100.00;98193.78;4976906;28;20038;-84
2021/11/07 07:29:27;;;;;;;51.60;25.60;;;;;;;13.73;99.44;98203.94;5007509;28;20030;-90
2021/11/07 07:34:20;;;;;;;50.15;26.15;;;;;;;13.16;100.00;98195.03;5005597;28;20022;-90
2021/11/07 07:36:46;;;;;;;43.50;24.10;;;;;;;13.74;100.00;98211.03;5004661;28;20023;-92
2021/11/07 07:39:12;;;;;;;49.03;22.58;;;;;;;13.64;100.00;98188.38;4984127;28;20022;-87
2021/11/07 07:41:38;;;;;;;44.15;23.00;;;;;;;13.91;100.00;98191.97;4979211;28;20053;-87
2021/11/07 07:44:07;;;;;;;40.30;21.48;;;;;;;14.12;98.60;98196.81;5003558;28;20049;-73
2021/11/07 07:46:41;;;;;;;50.03;21.40;;;;;;;13.51;100.00;98191.84;5009775;28;20113;-72
2021/11/07 07:49:07;;;;;;;65.47;21.83;;;;;;;13.31;100.00;98194.94;5004880;28;20049;-73
2021/11/07 07:51:33;;;;;;;38.90;22.17;;;;;;;12.98;100.00;98183.59;5001538;28;20030;-72
2021/11/07 07:54:02;;;;;;;45.95;24.85;;;;;;;12.67;100.00;98173.84;4993479;28;20021;-72
2021/11/07 07:56:31;;;;;;;40.08;21.58;;;;;;;13.37;100.00;98181.13;5007286;28;20029;-72
2021/11/07 07:58:58;;;;;;;48.45;25.25;;;;;;;13.84;100.00;98185.28;5012178;28;20241;-81
2021/11/07 08:01:24;;;;;;;49.85;26.85;;;;;;;14.30;100.00;98185.81;4994492;28;20076;-76
2021/11/07 08:03:53;;;;;;;50.80;28.42;;;;;;;15.27;93.98;98185.38;4993877;28;20522;-73
2021/11/07 08:06:19;;;;;;;47.10;26.27;;;;;;;15.86;88.75;98199.13;5010301;28;20026;-72
2021/11/07 08:08:44;;;;;;;45.95;24.17;;;;;;;15.16;90.42;98198.75;5002227;28;20030;-73
2021/11/07 08:11:10;;;;;;;47.10;26.58;;;;;;;14.52;95.79;98194.19;5009338;28;20440;-72
2021/11/07 08:13:36;;;;;;;47.25;25.45;;;;;;;14.52;98.69;98186.97;5009903;28;20053;-74
2021/11/07 08:16:01;;;;;;;42.92;22.27;;;;;;;14.92;94.99;98186.97;5010475;28;20078;-73
2021/11/07 08:18:27;;;;;;;54.15;28.48;;;;;;;14.57;98.30;98184.00;5007394;28;20101;-73
2021/11/07 08:20:53;;;;;;;48.58;25.63;;;;;;;14.31;99.93;98177.63;4995580;28;20022;-74
2021/11/07 08:23:23;;;;;;;43.55;24.60;;;;;;;14.17;100.00;98179.53;5007403;28;20028;-74
2021/11/07 08:25:50;;;;;;;42.05;20.63;;;;;;;14.59;100.00;98176.66;5009275;28;20485;-76
2021/11/07 08:28:19;;;;;;;31.42;17.35;;;;;;;15.24;94.57;98180.19;5008795;28;20173;-74
2021/11/07 08:30:50;;;;;;;31.35;17.67;;;;;;;15.53;91.91;98173.63;5010333;28;20025;-73
2021/11/07 08:33:16;;;;;;;33.13;18.42;;;;;;;14.95;94.74;98168.75;4984347;28;20033;-74
2021/11/07 08:35:44;;;;;;;33.88;17.55;;;;;;;14.60;98.18;98167.63;4990277;28;20500;-77
2021/11/07 08:38:14;;;;;;;44.53;19.15;;;;;;;14.34;100.00;98153.25;5010002;28;20413;-77
2021/11/07 08:40:42;;;;;;;31.58;19.05;;;;;;;15.08;96.70;98149.88;4995348;28;20034;-86
2021/11/07 09:02:30;;;;;;;84.45;48.35;;;;;;;15.10;96.66;98150.66;5008611;28;20037;-76
2021/11/07 09:07:38;;;;;;;113.80;68.28;;;;;;;15.54;94.01;98134.88;5030286;28;20033;-73
2021/11/07 09:10:16;;;;;;;73.22;47.97;;;;;;;17.37;82.86;98122.63;5031403;28;20029;-76
2021/11/07 09:12:42;;;;;;;39.33;24.20;;;;;;;19.05;73.21;98121.97;5036176;28;20029;-76
2021/11/07 09:15:08;;;;;;;40.10;23.65;;;;;;;19.76;68.31;98131.94;5023260;28;20028;-77
2021/11/07 09:17:34;;;;;;;33.45;18.48;;;;;;;19.50;66.90;98124.41;5031504;28;20455;-73
2021/11/07 09:20:06;;;;;;;33.08;18.55;;;;;;;18.64;70.83;98101.16;5012239;28;20025;-73
2021/11/07 09:22:45;;;;;;;31.30;18.23;;;;;;;17.73;75.86;98103.44;5029731;28;20386;-74
2021/11/07 09:25:19;;;;;;;43.80;20.80;;;;;;;18.46;73.68;98107.28;5012234;28;20029;-73
2021/11/07 09:27:49;;;;;;;31.00;16.63;;;;;;;19.04;70.13;98109.41;4997644;28;20029;-72
2021/11/07 09:31:11;;;;;;;31.95;17.30;;;;;;;18.94;69.82;98103.97;5029749;28;20075;-72
2021/11/07 09:38:23;;;;;;;60.28;39.25;;;;;;;20.53;62.55;98069.59;5013707;28;20026;-73
2021/11/07 09:41:09;;;;;;;78.63;42.20;;;;;;;20.62;62.11;98074.16;5010504;28;20033;-72
2021/11/07 09:46:21;;;;;;;38.63;20.85;;;;;;;22.85;53.31;98057.41;5027878;28;20025;-72
2021/11/07 09:48:56;;;;;;;28.92;18.58;;;;;;;22.33;55.28;98042.78;5028875;28;20108;-73
2021/11/07 09:51:28;;;;;;;27.90;16.50;;;;;;;22.60;54.83;98045.41;5019755;28;20549;-72
2021/11/07 09:54:04;;;;;;;27.90;14.20;;;;;;;24.29;49.48;98020.88;5009576;28;20087;-73
2021/11/07 09:56:35;;;;;;;24.73;14.32;;;;;;;23.99;49.44;98013.28;5010881;28;20025;-74
2021/11/07 09:59:01;;;;;;;19.13;12.88;;;;;;;24.24;48.32;98006.88;5009268;28;20539;-72
2021/11/07 10:01:29;;;;;;;18.75;12.07;;;;;;;23.43;50.95;98016.69;5029305;28;20029;-72
2021/11/07 10:03:55;;;;;;;21.95;14.15;;;;;;;23.50;50.34;98007.66;4997082;28;20021;-73
2021/11/07 10:06:29;;;;;;;26.83;15.00;;;;;;;24.18;49.07;98002.91;5029500;28;20032;-72
2021/11/07 10:09:00;;;;;;;22.83;14.00;;;;;;;24.28;47.78;97995.41;5030759;28;20022;-81
2021/11/07 10:11:36;;;;;;;22.23;12.87;;;;;;;23.86;48.65;98008.31;4993015;28;20021;-80
2021/11/07 10:14:12;;;;;;;27.27;15.15;;;;;;;22.90;51.34;98009.53;5013616;28;20022;-80
2021/11/07 10:16:46;;;;;;;40.45;22.40;;;;;;;21.84;55.12;98005.97;4993784;28;20026;-80
2021/11/07 10:19:20;;;;;;;29.70;16.30;;;;;;;22.05;55.33;98001.13;4997283;28;20029;-79
2021/11/07 10:21:49;;;;;;;27.38;15.13;;;;;;;22.60;53.91;97997.19;5011539;28;20044;-80
2021/11/07 10:24:21;;;;;;;19.35;13.65;;;;;;;23.46;52.40;98000.81;5029580;28;20405;-79
2021/11/07 10:27:03;;;;;;;26.67;13.68;;;;;;;23.99;50.12;97985.94;4997222;28;20049;-80
2021/11/07 10:29:40;;;;;;;;;;;;;;;24.38;49.32;97981.56;5026221;28;20045;-80
2021/11/07 10:32:18;;;;;;;27.98;14.43;;;;;;;24.98;47.33;97957.41;5001410;28;19919;-79
2021/11/07 10:35:09;;;;;;;22.63;14.13;;;;;;;25.84;46.04;97961.00;4998443;28;20088;-79
2021/11/07 10:52:05;;;;;;;23.42;13.52;;;;;;;26.63;43.38;97928.72;5029837;28;20460;-80
2021/11/07 10:54:12;;;;;;;23.15;14.05;;;;;;;27.32;42.05;97913.69;5003596;28;20043;-80
2021/11/07 10:56:38;;;;;;;26.92;16.20;;;;;;;26.80;42.88;97917.41;4996457;28;20029;-80
2021/11/07 10:59:14;;;;;;;21.73;14.68;;;;;;;25.84;44.76;97905.34;5004744;28;20029;-73
2021/11/07 11:01:40;;;;;;;20.00;11.73;;;;;;;25.22;46.09;97899.84;5012345;28;20481;-73
2021/11/07 11:04:06;;;;;;;28.88;11.93;;;;;;;25.53;45.97;97910.00;5009163;28;20034;-73
2021/11/07 11:06:31;;;;;;;23.98;12.65;;;;;;;25.70;45.07;97898.75;5017733;28;20507;-73
2021/11/07 11:09:10;;;;;;;24.35;13.00;;;;;;;25.84;44.89;97895.22;5032352;28;20151;-73
2021/11/07 11:17:31;;;;;;;24.70;13.93;;;;;;;27.40;41.67;97862.25;4973812;28;20109;-80
2021/11/07 11:20:40;;;;;;;21.63;12.40;;;;;;;28.25;40.43;97867.84;5009325;28;20076;-76
2021/11/07 11:23:25;;;;;;;25.00;11.70;;;;;;;28.48;39.02;97859.38;5002550;28;20041;-74
2021/11/07 11:25:56;;;;;;;21.17;11.25;;;;;;;29.07;38.24;97851.53;5028211;28;20033;-73
2021/11/07 11:28:34;;;;;;;28.25;13.27;;;;;;;29.20;37.62;97839.69;5013026;28;20029;-74
2021/11/07 11:31:36;;;;;;;24.33;12.65;;;;;;;29.34;37.45;97847.88;4999203;28;20093;-73
2021/11/07 11:33:54;;;;;;;27.73;12.98;;;;;;;29.25;37.42;97842.75;5014708;28;20112;-74
2021/11/07 11:36:27;;;;;;;26.90;12.10;;;;;;;29.18;37.13;97831.66;5003675;28;20041;-74
2021/11/07 11:39:01;;;;;;;24.50;12.05;;;;;;;29.81;35.87;97830.38;5010012;28;20033;-75
2021/11/07 11:41:36;;;;;;;30.10;12.65;;;;;;;29.33;36.45;97815.84;5013234;28;20029;-80
2021/11/07 11:44:02;;;;;;;26.38;12.65;;;;;;;29.37;36.71;97811.63;5034949;28;20034;-78
2021/11/07 11:46:47;;;;;;;16.33;10.50;;;;;;;30.51;34.00;97805.03;5006815;28;20037;-78
2021/11/07 11:49:28;;;;;;;21.73;10.88;;;;;;;30.38;34.60;97810.50;4992446;28;20058;-79
2021/11/07 11:55:03;;;;;;;23.35;13.10;;;;;;;29.90;35.23;97803.50;4991452;28;20092;-73
2021/11/07 11:57:51;;;;;;;24.77;12.50;;;;;;;29.61;35.96;97803.81;4979875;28;20186;-77
2021/11/07 12:00:43;;;;;;;20.90;12.27;;;;;;;30.46;34.75;97801.19;4992762;28;20068;-78
2021/11/07 12:05:49;;;;;;;19.85;11.35;;;;;;;30.15;35.54;97790.75;4993566;28;20197;-80
2021/11/07 12:08:21;;;;;;;22.13;10.98;;;;;;;29.95;35.91;97784.41;4992747;28;20032;-82
2021/11/07 12:13:53;;;;;;;18.55;9.85;;;;;;;30.42;34.37;97775.94;4994922;28;20092;-76
2021/11/07 12:16:58;;;;;;;21.63;10.82;;;;;;;30.33;34.48;97773.56;4987597;28;20474;-75
2021/11/07 12:19:32;;;;;;;18.30;11.07;;;;;;;29.91;35.07;97766.56;4993643;28;20017;-75
2021/11/07 12:22:03;;;;;;;19.13;11.07;;;;;;;29.08;36.19;97765.03;4993509;28;20034;-78
2021/11/07 12:24:32;;;;;;;;;;;;;;;29.22;36.06;97766.81;4992137;28;20022;-78
2021/11/07 12:27:29;;;;;;;18.17;10.65;;;;;;;29.71;35.31;97763.75;4991931;28;19922;-80
2021/11/07 12:30:17;;;;;;;17.42;9.65;;;;;;;29.33;35.84;97763.47;4989685;28;20046;-79
2021/11/07 12:32:46;;;;;;;24.48;10.70;;;;;;;29.11;36.62;97753.59;4992404;28;20057;-78
2021/11/07 12:35:24;;;;;;;20.38;10.65;;;;;;;29.66;35.77;97758.00;4991772;28;20117;-79
2021/11/07 12:41:11;;;;;;;19.98;11.23;;;;;;;28.90;37.06;97750.97;4992282;28;20185;-81
2021/11/07 12:43:38;;;;;;;49.40;19.92;;;;;;;28.01;38.37;97752.69;4993437;28;20509;-74
2021/11/07 12:49:33;;;;;;;27.55;12.98;;;;;;;28.11;38.47;97756.00;4973138;28;20110;-75
2021/11/07 12:52:08;;;;;;;33.88;15.48;;;;;;;28.48;38.80;97741.84;4986131;28;20050;-73
2021/11/07 12:54:39;;;;;;;17.88;8.82;;;;;;;29.14;36.90;97736.66;5024750;28;20374;-74
2021/11/07 12:57:11;;;;;;;13.95;8.80;;;;;;;29.57;36.25;97737.19;5018512;28;20472;-73
2021/11/07 12:59:43;;;;;;;;;;;;;;;29.71;36.09;97738.09;5033065;28;20119;-74
2021/11/07 13:02:17;;;;;;;12.05;8.60;;;;;;;29.83;36.01;97730.91;5010394;28;20383;-75
2021/11/07 13:04:44;;;;;;;16.13;8.52;;;;;;;30.38;35.19;97733.19;5037692;28;20042;-74
2021/11/07 13:07:13;;;;;;;12.52;8.15;;;;;;;29.90;35.47;97732.59;5034514;28;20169;-74
2021/11/07 13:09:52;;;;;;;15.38;9.07;;;;;;;29.54;36.16;97732.09;5027565;28;20386;-73
2021/11/07 13:12:50;;;;;;;23.50;10.05;;;;;;;29.42;36.04;97734.66;5007105;28;20022;-75